Time;durP1;ratioP1;P1;durP2;ratioP2;P2;SDS_P1;SDS_P2;PMS_P1;PMS_P2;Temp;Humidity;BMP_temperature;BMP_pressure;BME280_temperature;BME280_humidity;BME280_pressure;Samples;Min_cycle;Max_cycle;Signal;HPM_P1;HPM_P2
2022/02/14 00:00:09;;;;;;;0.00;0.00;;;7.10;99.90;;;;;;5090162;28;20045;-90
2022/02/14 00:02:36;;;;;;;0.10;0.10;;;7.10;99.90;;;;;;5107313;28;20051;-91
2022/02/14 00:05:04;;;;;;;0.10;0.10;;;7.10;99.90;;;;;;5090430;28;20106;-91
2022/02/14 00:07:33;;;;;;;0.10;0.10;;;7.10;99.90;;;;;;5073965;28;20055;-91
2022/02/14 00:10:00;;;;;;;0.10;0.10;;;7.10;99.90;;;;;;5074059;28;20040;-91
2022/02/14 00:12:27;;;;;;;0.10;0.10;;;7.10;99.90;;;;;;5073438;28;20044;-86
2022/02/14 00:14:54;;;;;;;0.10;0.10;;;7.10;99.90;;;;;;5074623;28;20039;-91
2022/02/14 00:17:21;;;;;;;0.10;0.10;;;7.20;99.90;;;;;;5073237;28;20489;-90
2022/02/14 00:19:50;;;;;;;0.30;0.13;;;7.20;99.90;;;;;;5089895;28;20515;-85
2022/02/14 00:22:21;;;;;;;0.00;0.00;;;7.20;99.90;;;;;;5057882;28;20048;-91
2022/02/14 00:24:51;;;;;;;0.10;0.10;;;7.20;99.90;;;;;;5073925;28;20089;-86
2022/02/14 00:27:20;;;;;;;0.10;0.10;;;7.30;99.90;;;;;;5090677;28;20043;-85
2022/02/14 00:29:48;;;;;;;0.00;0.00;;;7.30;99.90;;;;;;5090544;28;20040;-90
2022/02/14 00:32:15;;;;;;;0.10;0.10;;;7.40;99.90;;;;;;5072503;28;20489;-86
2022/02/14 00:34:42;;;;;;;0.10;0.10;;;7.50;99.90;;;;;;5073134;28;20094;-90
2022/02/14 00:37:12;;;;;;;0.10;0.10;;;7.60;99.90;;;;;;5073437;28;20033;-90
2022/02/14 00:39:39;;;;;;;0.10;0.10;;;7.60;99.90;;;;;;5073532;28;20067;-90
2022/02/14 00:42:06;;;;;;;0.08;0.08;;;7.60;99.90;;;;;;5056988;28;20045;-90
2022/02/14 00:44:33;;;;;;;0.10;0.10;;;7.70;99.90;;;;;;5089501;28;20048;-91
2022/02/14 00:47:00;;;;;;;0.10;0.10;;;7.60;99.90;;;;;;5073363;28;20053;-90
2022/02/14 00:49:27;;;;;;;0.10;0.10;;;7.70;99.90;;;;;;5072558;28;20555;-86
2022/02/14 00:51:54;;;;;;;0.00;0.00;;;7.70;99.90;;;;;;5090003;28;20078;-91
2022/02/14 00:54:20;;;;;;;0.10;0.10;;;7.80;99.90;;;;;;5056472;28;20047;-86
2022/02/14 00:56:47;;;;;;;0.10;0.10;;;7.80;99.90;;;;;;5057401;28;20043;-90
2022/02/14 00:59:14;;;;;;;0.10;0.10;;;7.80;99.90;;;;;;5056533;28;20099;-90
2022/02/14 01:01:41;;;;;;;0.10;0.10;;;7.90;99.90;;;;;;5057228;28;20083;-86
2022/02/14 01:04:07;;;;;;;0.05;0.05;;;8.00;99.90;;;;;;5073752;28;20044;-91
2022/02/14 01:06:34;;;;;;;0.00;0.00;;;8.00;99.90;;;;;;5072237;28;20401;-85
2022/02/14 01:09:01;;;;;;;0.10;0.10;;;8.00;99.90;;;;;;5072455;28;20045;-86
2022/02/14 01:11:28;;;;;;;0.08;0.08;;;8.10;99.90;;;;;;5057090;28;20033;-86
2022/02/14 01:13:55;;;;;;;0.08;0.08;;;8.10;99.90;;;;;;5072793;28;20504;-86
2022/02/14 01:16:21;;;;;;;0.00;0.00;;;8.20;99.90;;;;;;5056966;28;20169;-91
2022/02/14 01:18:49;;;;;;;0.10;0.10;;;8.10;99.90;;;;;;5056556;28;20036;-86
2022/02/14 01:21:15;;;;;;;0.10;0.10;;;8.20;99.90;;;;;;5072399;28;20044;-87
2022/02/14 01:23:42;;;;;;;0.00;0.00;;;8.20;99.90;;;;;;5056137;28;20123;-86
2022/02/14 01:26:09;;;;;;;0.10;0.10;;;7.60;99.90;;;;;;5071918;28;20044;-85
2022/02/14 01:28:36;;;;;;;0.15;0.15;;;8.20;99.90;;;;;;5091108;28;20044;-90
2022/02/14 01:31:02;;;;;;;0.10;0.10;;;8.30;99.90;;;;;;5076723;28;20127;-86
2022/02/14 01:33:29;;;;;;;0.00;0.00;;;8.30;99.90;;;;;;5059378;28;20037;-91
2022/02/14 01:35:56;;;;;;;0.10;0.10;;;8.30;99.90;;;;;;5060228;28;20040;-86
2022/02/14 01:38:23;;;;;;;0.10;0.10;;;8.40;99.90;;;;;;5059784;28;20044;-86
2022/02/14 01:40:50;;;;;;;0.10;0.10;;;8.40;99.90;;;;;;5075952;28;20090;-86
2022/02/14 01:43:16;;;;;;;0.08;0.08;;;8.40;99.90;;;;;;5076502;28;20049;-85
2022/02/14 01:45:44;;;;;;;0.10;0.10;;;8.40;99.90;;;;;;5059901;28;20168;-91
2022/02/14 01:48:13;;;;;;;0.10;0.10;;;8.30;99.90;;;;;;5075601;28;20083;-86
2022/02/14 01:50:40;;;;;;;0.10;0.10;;;8.30;99.90;;;;;;5059142;28;20131;-86
2022/02/14 01:53:07;;;;;;;0.10;0.10;;;8.20;99.90;;;;;;5075695;28;20124;-85
2022/02/14 01:55:33;;;;;;;0.03;0.03;;;8.20;99.90;;;;;;5075538;28;20047;-86
2022/02/14 01:58:04;;;;;;;0.08;0.08;;;8.20;99.90;;;;;;5092920;28;20083;-91
2022/02/14 02:00:31;;;;;;;0.00;0.00;;;8.20;99.90;;;;;;5076203;28;20132;-91
2022/02/14 02:02:58;;;;;;;0.10;0.10;;;8.20;99.90;;;;;;5076363;28;20076;-86
2022/02/14 02:05:26;;;;;;;0.10;0.10;;;8.20;99.90;;;;;;5075640;28;20048;-86
2022/02/14 02:07:53;;;;;;;0.00;0.00;;;8.20;99.90;;;;;;5092328;28;20040;-86
2022/02/14 02:10:20;;;;;;;0.00;0.00;;;7.80;99.90;;;;;;5075375;28;20562;-90
2022/02/14 02:12:57;;;;;;;0.05;0.05;;;8.20;99.90;;;;;;5075725;28;20050;-90
2022/02/14 02:15:24;;;;;;;0.95;0.40;;;8.20;99.90;;;;;;5091522;28;20182;-86
2022/02/14 02:17:51;;;;;;;0.10;0.10;;;8.20;99.90;;;;;;5093004;28;20044;-86
2022/02/14 02:20:19;;;;;;;0.10;0.10;;;8.20;99.90;;;;;;5109365;28;20515;-90
2022/02/14 02:22:48;;;;;;;0.00;0.00;;;8.20;99.90;;;;;;5091764;28;20032;-86
2022/02/14 02:25:16;;;;;;;0.10;0.10;;;8.40;99.90;;;;;;5075142;28;20048;-90
2022/02/14 02:27:44;;;;;;;0.10;0.10;;;8.20;99.90;;;;;;5075399;28;20155;-86
2022/02/14 02:30:22;;;;;;;0.08;0.08;;;8.10;99.90;;;;;;5091874;28;20040;-85
2022/02/14 02:32:50;;;;;;;0.00;0.00;;;8.20;99.90;;;;;;5092596;28;20036;-91
2022/02/14 02:35:17;;;;;;;0.00;0.00;;;8.20;99.90;;;;;;5091102;28;20040;-86
2022/02/14 02:37:43;;;;;;;0.10;0.10;;;8.30;99.90;;;;;;5075912;28;20036;-91
2022/02/14 02:40:11;;;;;;;0.00;0.00;;;8.30;99.90;;;;;;5090751;28;20484;-85
2022/02/14 02:42:37;;;;;;;0.10;0.10;;;8.40;99.90;;;;;;5074371;28;20087;-86
2022/02/14 02:45:05;;;;;;;0.10;0.10;;;8.40;99.90;;;;;;5075120;28;20075;-86
2022/02/14 02:47:34;;;;;;;0.10;0.10;;;8.40;99.90;;;;;;5057751;28;20052;-86
2022/02/14 02:50:01;;;;;;;0.00;0.00;;;8.50;99.90;;;;;;5075484;28;20051;-91
2022/02/14 02:52:28;;;;;;;0.00;0.00;;;8.50;99.90;;;;;;5074571;28;20123;-90
2022/02/14 02:54:56;;;;;;;0.10;0.10;;;8.60;99.90;;;;;;5074990;28;20040;-91
2022/02/14 02:57:23;;;;;;;0.03;0.03;;;8.60;99.90;;;;;;5058827;28;20504;-85
2022/02/14 02:59:53;;;;;;;0.00;0.00;;;8.60;99.90;;;;;;5107271;28;20136;-85
2022/02/14 03:02:20;;;;;;;0.10;0.10;;;8.50;99.90;;;;;;5074599;28;20449;-91
2022/02/14 03:04:47;;;;;;;0.00;0.00;;;8.60;99.90;;;;;;5090547;28;20036;-85
2022/02/14 03:07:14;;;;;;;0.10;0.10;;;8.60;99.90;;;;;;5090795;28;20396;-86
2022/02/14 03:09:40;;;;;;;0.10;0.10;;;8.60;99.90;;;;;;5090398;28;20036;-86
2022/02/14 03:12:08;;;;;;;0.03;0.03;;;8.60;99.90;;;;;;5057888;28;20053;-91
2022/02/14 03:14:38;;;;;;;0.10;0.10;;;8.70;99.90;;;;;;5058210;28;20029;-91
2022/02/14 03:17:10;;;;;;;0.00;0.00;;;8.70;99.90;;;;;;5075604;28;20040;-86
2022/02/14 03:19:37;;;;;;;0.00;0.00;;;8.70;99.90;;;;;;5091211;28;20045;-90
2022/02/14 03:22:05;;;;;;;0.10;0.10;;;8.70;99.90;;;;;;5091679;28;20041;-91
2022/02/14 03:24:32;;;;;;;0.10;0.10;;;8.70;99.90;;;;;;5074531;28;20049;-91
2022/02/14 03:26:59;;;;;;;0.00;0.00;;;9.40;99.90;;;;;;5074652;28;20527;-86
2022/02/14 03:29:25;;;;;;;0.00;0.00;;;8.70;99.90;;;;;;5057656;28;20047;-91
2022/02/14 03:31:53;;;;;;;0.10;0.10;;;8.70;99.90;;;;;;5058679;28;20063;-91
2022/02/14 03:34:20;;;;;;;0.00;0.00;;;8.60;99.90;;;;;;5092143;28;20154;-91
2022/02/14 03:36:47;;;;;;;0.10;0.10;;;8.60;99.90;;;;;;5074272;28;20100;-91
2022/02/14 03:39:14;;;;;;;0.05;0.05;;;8.60;99.90;;;;;;5058382;28;20516;-91
2022/02/14 03:41:41;;;;;;;0.00;0.00;;;8.60;99.90;;;;;;5057271;28;20036;-85
2022/02/14 03:44:07;;;;;;;0.00;0.00;;;8.60;99.90;;;;;;5057252;28;20435;-86
2022/02/14 03:46:34;;;;;;;0.10;0.10;;;8.50;99.90;;;;;;5057786;28;20048;-86
2022/02/14 03:49:01;;;;;;;0.10;0.10;;;8.50;99.90;;;;;;5074168;28;20091;-86
2022/02/14 03:51:28;;;;;;;0.00;0.00;;;8.60;99.90;;;;;;5074282;28;20044;-91
2022/02/14 03:53:54;;;;;;;0.10;0.10;;;8.50;99.90;;;;;;5057701;28;20128;-86
2022/02/14 03:56:21;;;;;;;0.10;0.10;;;8.50;99.90;;;;;;5057597;28;20040;-91
2022/02/14 03:58:48;;;;;;;0.10;0.10;;;9.20;99.90;;;;;;5057336;28;20072;-90
2022/02/14 04:01:15;;;;;;;0.00;0.00;;;8.50;99.90;;;;;;5074085;28;20493;-91
2022/02/14 04:03:41;;;;;;;0.00;0.00;;;8.50;99.90;;;;;;5073820;28;20055;-85
2022/02/14 04:06:08;;;;;;;0.00;0.00;;;8.50;99.90;;;;;;5058273;28;20386;-91
2022/02/14 04:08:35;;;;;;;0.10;0.10;;;8.50;99.90;;;;;;5073682;28;20049;-85
2022/02/14 04:11:01;;;;;;;0.10;0.10;;;8.50;99.90;;;;;;5057278;28;20481;-86
2022/02/14 04:13:29;;;;;;;0.08;0.08;;;8.50;99.90;;;;;;5074284;28;20036;-91
2022/02/14 04:15:55;;;;;;;0.03;0.03;;;8.50;99.90;;;;;;5058056;28;20039;-91
2022/02/14 04:18:22;;;;;;;0.10;0.10;;;8.50;99.90;;;;;;5057491;28;20036;-91
2022/02/14 04:20:49;;;;;;;0.08;0.08;;;8.60;99.90;;;;;;5074303;28;20131;-86
2022/02/14 04:23:15;;;;;;;0.10;0.10;;;8.50;99.90;;;;;;5090403;28;20047;-86
2022/02/14 04:25:42;;;;;;;0.03;0.03;;;8.60;99.90;;;;;;5056719;28;20048;-86
2022/02/14 04:28:09;;;;;;;0.00;0.00;;;8.50;99.90;;;;;;5090151;28;20079;-86
2022/02/14 04:30:36;;;;;;;0.00;0.00;;;8.50;99.90;;;;;;5074601;28;20556;-86
2022/02/14 04:33:03;;;;;;;0.10;0.10;;;8.50;99.90;;;;;;5074413;28;20040;-91
2022/02/14 04:35:31;;;;;;;0.77;0.50;;;8.60;99.90;;;;;;5090043;28;20043;-91
2022/02/14 04:37:59;;;;;;;0.10;0.10;;;8.60;99.90;;;;;;5090530;28;20036;-87
2022/02/14 04:40:28;;;;;;;0.10;0.10;;;8.70;99.90;;;;;;5091388;28;20102;-91
2022/02/14 04:42:57;;;;;;;0.10;0.10;;;8.80;99.90;;;;;;5090441;28;20044;-85
2022/02/14 04:45:25;;;;;;;0.08;0.08;;;8.80;99.90;;;;;;5106470;28;20044;-90
2022/02/14 04:47:52;;;;;;;0.10;0.10;;;8.80;99.90;;;;;;5057641;28;20414;-86
2022/02/14 04:50:19;;;;;;;0.00;0.00;;;8.90;99.90;;;;;;5089323;28;20497;-91
2022/02/14 04:52:46;;;;;;;0.10;0.10;;;8.90;99.90;;;;;;5072300;28;20128;-90
2022/02/14 04:55:13;;;;;;;0.03;0.03;;;9.00;99.90;;;;;;5074311;28;20127;-90
2022/02/14 04:57:40;;;;;;;0.10;0.10;;;9.00;99.90;;;;;;5089656;28;20496;-86
2022/02/14 05:00:09;;;;;;;0.00;0.00;;;9.00;99.90;;;;;;5073854;28;20044;-90
2022/02/14 05:02:36;;;;;;;0.00;0.00;;;9.00;99.90;;;;;;5075146;28;20083;-86
2022/02/14 05:05:04;;;;;;;0.10;0.10;;;9.00;99.90;;;;;;5094215;28;20037;-91
2022/02/14 05:07:31;;;;;;;0.10;0.10;;;9.00;99.90;;;;;;5076828;28;20513;-85
2022/02/14 05:09:57;;;;;;;0.00;0.00;;;9.10;99.90;;;;;;5061454;28;20041;-91
2022/02/14 05:12:24;;;;;;;0.00;0.00;;;9.10;99.90;;;;;;5077925;28;20481;-86
2022/02/14 05:14:51;;;;;;;0.10;0.10;;;9.10;99.90;;;;;;5093668;28;20036;-91
2022/02/14 05:17:18;;;;;;;0.00;0.00;;;9.10;99.90;;;;;;5093509;28;20102;-86
2022/02/14 05:19:45;;;;;;;0.03;0.03;;;9.10;99.90;;;;;;5060721;28;20040;-89
2022/02/14 05:22:12;;;;;;;0.10;0.10;;;9.10;99.90;;;;;;5060846;28;20079;-85
2022/02/14 05:24:38;;;;;;;0.10;0.10;;;9.10;99.90;;;;;;5060499;28;20108;-91
2022/02/14 05:27:05;;;;;;;0.15;0.15;;;9.10;99.90;;;;;;5077454;28;20481;-90
2022/02/14 05:29:32;;;;;;;0.00;0.00;;;9.10;99.90;;;;;;5076371;28;20067;-85
2022/02/14 05:31:59;;;;;;;0.00;0.00;;;9.20;99.90;;;;;;5109177;28;20037;-86
2022/02/14 05:34:25;;;;;;;0.00;0.00;;;9.20;99.90;;;;;;5076494;28;20037;-86
2022/02/14 05:36:52;;;;;;;0.08;0.08;;;9.20;99.90;;;;;;5077494;28;20120;-91
2022/02/14 05:39:19;;;;;;;0.00;0.00;;;9.30;99.90;;;;;;5078380;28;20386;-86
2022/02/14 05:41:46;;;;;;;0.00;0.00;;;9.30;99.90;;;;;;5061378;28;20750;-86
2022/02/14 05:44:12;;;;;;;0.10;0.10;;;9.30;99.90;;;;;;5076693;28;20090;-91
2022/02/14 05:46:39;;;;;;;0.10;0.10;;;9.40;99.90;;;;;;5076883;28;20059;-91
2022/02/14 05:49:06;;;;;;;0.00;0.00;;;9.30;99.90;;;;;;5075929;28;20413;-86
2022/02/14 05:51:32;;;;;;;0.10;0.10;;;9.30;99.90;;;;;;5060147;28;20036;-91
2022/02/14 05:53:59;;;;;;;0.10;0.10;;;9.40;99.90;;;;;;5076024;28;20076;-91
2022/02/14 05:56:26;;;;;;;0.08;0.08;;;9.40;99.90;;;;;;5076520;28;20071;-90
2022/02/14 05:58:53;;;;;;;0.10;0.10;;;9.40;99.90;;;;;;5060390;28;20048;-90
2022/02/14 06:01:20;;;;;;;0.00;0.00;;;9.40;99.90;;;;;;5076843;28;20041;-86
2022/02/14 06:03:46;;;;;;;0.10;0.10;;;9.40;99.90;;;;;;5077361;28;20094;-85
2022/02/14 06:06:13;;;;;;;0.10;0.10;;;9.40;99.90;;;;;;5076946;28;20044;-91
2022/02/14 06:08:40;;;;;;;0.00;0.00;;;9.40;99.90;;;;;;5078124;28;20079;-86
2022/02/14 06:11:07;;;;;;;0.10;0.10;;;9.50;99.90;;;;;;5059615;28;20033;-90
2022/02/14 06:13:33;;;;;;;0.00;0.00;;;9.40;99.90;;;;;;5074974;28;20040;-86
2022/02/14 06:16:00;;;;;;;0.00;0.00;;;9.40;99.90;;;;;;5058389;28;20474;-91
2022/02/14 06:18:27;;;;;;;0.00;0.00;;;9.50;99.90;;;;;;5092801;28;20048;-86
2022/02/14 06:20:54;;;;;;;0.00;0.00;;;9.50;99.90;;;;;;5108084;28;20045;-86
2022/02/14 06:23:21;;;;;;;0.00;0.00;;;9.50;99.90;;;;;;5079996;28;20485;-91
2022/02/14 06:25:47;;;;;;;0.00;0.00;;;9.40;99.90;;;;;;5060030;28;20045;-91
2022/02/14 06:28:14;;;;;;;0.00;0.00;;;9.40;99.90;;;;;;5076199;28;20045;-86
2022/02/14 06:30:45;;;;;;;0.08;0.08;;;9.50;99.90;;;;;;5059301;28;20051;-91
2022/02/14 06:33:13;;;;;;;0.03;0.03;;;9.50;99.90;;;;;;5091131;28;20044;-86
2022/02/14 06:35:40;;;;;;;0.00;0.00;;;9.60;99.90;;;;;;5092336;28;20162;-91
2022/02/14 06:38:07;;;;;;;0.03;0.03;;;9.50;99.90;;;;;;5107535;28;20131;-86
2022/02/14 06:40:34;;;;;;;0.00;0.00;;;9.50;99.90;;;;;;5075317;28;20072;-86
2022/02/14 06:43:01;;;;;;;0.00;0.00;;;9.50;99.90;;;;;;5075637;28;20123;-92
2022/02/14 06:45:28;;;;;;;0.05;0.05;;;9.50;99.90;;;;;;5059957;28;20067;-91
2022/02/14 06:47:54;;;;;;;0.10;0.10;;;9.50;99.90;;;;;;5057833;28;20067;-88
2022/02/14 06:50:21;;;;;;;0.10;0.10;;;9.50;99.90;;;;;;5075393;28;20053;-92
2022/02/14 06:52:48;;;;;;;0.00;0.00;;;9.40;99.90;;;;;;5075777;28;20123;-86
2022/02/14 06:55:14;;;;;;;0.00;0.00;;;9.50;99.90;;;;;;5059126;28;20123;-91
2022/02/14 06:57:42;;;;;;;0.00;0.00;;;9.50;99.90;;;;;;5058746;28;20072;-86
2022/02/14 07:00:12;;;;;;;0.00;0.00;;;9.40;99.90;;;;;;5074808;28;20393;-91
2022/02/14 07:02:39;;;;;;;0.05;0.05;;;9.50;99.90;;;;;;5090994;28;20043;-91
2022/02/14 07:05:08;;;;;;;0.00;0.00;;;9.50;99.90;;;;;;5074449;28;20128;-89
2022/02/14 07:07:35;;;;;;;0.00;0.00;;;9.50;99.90;;;;;;5075425;28;20409;-92
2022/02/14 07:10:02;;;;;;;0.00;0.00;;;9.50;99.90;;;;;;5074600;28;20045;-86
2022/02/14 07:12:29;;;;;;;0.00;0.00;;;9.50;99.90;;;;;;5091146;28;20033;-86
2022/02/14 07:14:56;;;;;;;0.00;0.00;;;9.50;99.90;;;;;;5074337;28;20043;-92
2022/02/14 07:17:22;;;;;;;0.00;0.00;;;9.70;99.90;;;;;;5057866;28;20127;-86
2022/02/14 07:19:49;;;;;;;0.00;0.00;;;9.50;99.90;;;;;;5058555;28;20485;-92
2022/02/14 07:22:16;;;;;;;0.00;0.00;;;9.50;99.90;;;;;;5074982;28;20382;-84
2022/02/14 07:24:43;;;;;;;0.00;0.00;;;9.50;99.90;;;;;;5091742;28;20490;-89
2022/02/14 07:27:10;;;;;;;0.00;0.00;;;9.30;99.90;;;;;;5091081;28;20069;-88
2022/02/14 07:29:36;;;;;;;0.00;0.00;;;9.50;99.90;;;;;;5107829;28;20078;-88
2022/02/14 07:32:04;;;;;;;0.00;0.00;;;9.50;99.90;;;;;;5058678;28;20134;-89
2022/02/14 07:34:30;;;;;;;0.10;0.10;;;9.60;99.90;;;;;;5091456;28;20152;-88
2022/02/14 07:37:02;;;;;;;0.00;0.00;;;9.60;99.90;;;;;;5058550;28;20137;-88
2022/02/14 07:39:30;;;;;;;0.00;0.00;;;9.70;99.90;;;;;;5076411;28;20048;-87
2022/02/14 07:41:57;;;;;;;0.10;0.10;;;9.70;99.90;;;;;;5091263;28;20040;-89
2022/02/14 07:44:25;;;;;;;0.00;0.00;;;9.60;99.90;;;;;;5091189;28;20123;-90
2022/02/14 07:46:52;;;;;;;0.10;0.10;;;9.70;99.90;;;;;;5074373;28;20167;-87
2022/02/14 07:49:21;;;;;;;0.10;0.10;;;9.70;99.90;;;;;;5073988;28;20048;-87
2022/02/14 07:51:48;;;;;;;0.00;0.00;;;9.70;99.90;;;;;;5091286;28;20481;-89
2022/02/14 07:54:15;;;;;;;0.00;0.00;;;9.70;99.90;;;;;;5074145;28;20044;-87
2022/02/14 07:56:42;;;;;;;0.03;0.03;;;9.80;99.90;;;;;;5089921;28;20048;-89
2022/02/14 07:59:08;;;;;;;0.70;0.22;;;9.80;99.90;;;;;;5060987;28;20040;-88
2022/02/14 08:01:35;;;;;;;0.00;0.00;;;9.80;99.90;;;;;;5070611;28;20405;-87
2022/02/14 08:04:02;;;;;;;0.05;0.05;;;9.80;99.90;;;;;;5086857;28;20044;-87
2022/02/14 08:06:29;;;;;;;0.00;0.00;;;9.80;99.90;;;;;;5069857;28;20043;-88
2022/02/14 08:08:55;;;;;;;0.00;0.00;;;9.80;99.90;;;;;;5053684;28;20063;-89
2022/02/14 08:11:22;;;;;;;0.10;0.10;;;9.80;99.90;;;;;;5053747;28;20490;-87
2022/02/14 08:13:49;;;;;;;0.00;0.00;;;9.80;99.90;;;;;;5081471;28;20688;-87
2022/02/14 08:16:16;;;;;;;0.00;0.00;;;9.90;99.90;;;;;;5072669;28;20033;-88
2022/02/14 08:18:42;;;;;;;0.10;0.10;;;9.80;99.90;;;;;;5073810;28;20040;-88
2022/02/14 08:21:09;;;;;;;0.10;0.10;;;9.90;99.90;;;;;;5073704;28;20032;-88
2022/02/14 08:23:36;;;;;;;0.00;0.00;;;9.90;99.90;;;;;;5073233;28;20512;-88
2022/02/14 08:26:02;;;;;;;0.00;0.00;;;9.90;99.90;;;;;;5074178;28;20413;-87
2022/02/14 08:28:29;;;;;;;0.00;0.00;;;9.90;99.90;;;;;;5057003;28;20830;-88
2022/02/14 08:30:56;;;;;;;0.00;0.00;;;9.90;99.90;;;;;;5090134;28;20047;-87
2022/02/14 08:33:23;;;;;;;0.00;0.00;;;9.90;99.90;;;;;;5056873;28;20040;-87
2022/02/14 08:35:49;;;;;;;0.00;0.00;;;10.00;99.90;;;;;;5053209;28;20041;-88
2022/02/14 08:38:16;;;;;;;0.10;0.10;;;10.00;99.90;;;;;;5072025;28;20158;-88
2022/02/14 08:40:43;;;;;;;0.10;0.10;;;10.00;99.90;;;;;;5064677;28;20496;-87
2022/02/14 08:43:09;;;;;;;0.03;0.03;;;9.90;99.90;;;;;;5076915;28;20459;-88
2022/02/14 08:45:36;;;;;;;0.00;0.00;;;9.90;99.90;;;;;;5077389;28;20040;-87
2022/02/14 08:48:03;;;;;;;0.00;0.00;;;9.90;99.90;;;;;;5077242;28;20059;-88
2022/02/14 08:50:30;;;;;;;0.00;0.00;;;9.90;99.90;;;;;;5093170;28;20052;-87
2022/02/14 08:53:00;;;;;;;0.00;0.00;;;9.90;99.90;;;;;;5077211;28;20098;-87
2022/02/14 08:55:28;;;;;;;0.10;0.10;;;9.90;99.90;;;;;;5093912;28;20080;-87
2022/02/14 08:57:55;;;;;;;0.00;0.00;;;9.80;99.90;;;;;;5060503;28;20044;-88
2022/02/14 09:00:21;;;;;;;0.00;0.00;;;9.90;99.90;;;;;;5076209;28;20041;-88
2022/02/14 09:02:48;;;;;;;0.00;0.00;;;9.90;99.90;;;;;;5093595;28;20079;-88
2022/02/14 09:05:15;;;;;;;0.00;0.00;;;9.90;99.90;;;;;;5075974;28;20055;-87
2022/02/14 09:07:45;;;;;;;0.10;0.10;;;9.80;99.90;;;;;;5093230;28;20036;-87
2022/02/14 09:10:12;;;;;;;0.00;0.00;;;9.80;99.90;;;;;;5093358;28;20047;-87
2022/02/14 09:12:39;;;;;;;0.20;0.20;;;9.80;99.90;;;;;;5093469;28;20036;-87
2022/02/14 09:15:06;;;;;;;0.05;0.05;;;9.70;99.90;;;;;;5055821;28;20036;-87
2022/02/14 09:17:32;;;;;;;0.28;0.20;;;9.80;99.90;;;;;;5073696;28;20426;-88
2022/02/14 09:19:59;;;;;;;0.00;0.00;;;9.80;99.90;;;;;;5057056;28;20174;-88
2022/02/14 09:22:26;;;;;;;0.00;0.00;;;9.70;99.90;;;;;;5062073;28;20041;-88
2022/02/14 09:24:52;;;;;;;0.00;0.00;;;9.80;99.90;;;;;;5076390;28;20040;-86
2022/02/14 09:27:19;;;;;;;0.10;0.10;;;9.80;99.90;;;;;;5060491;28;20074;-87
2022/02/14 09:29:46;;;;;;;0.03;0.03;;;9.80;99.90;;;;;;5059714;28;20516;-89
2022/02/14 09:32:13;;;;;;;0.10;0.10;;;9.80;99.90;;;;;;5059628;28;20470;-87
2022/02/14 09:34:39;;;;;;;0.00;0.00;;;9.80;99.90;;;;;;5092583;28;20040;-87
2022/02/14 09:37:07;;;;;;;0.00;0.00;;;9.80;99.90;;;;;;5075924;28;20036;-87
2022/02/14 09:39:34;;;;;;;0.00;0.00;;;9.70;99.90;;;;;;5075802;28;20104;-88
2022/02/14 09:42:02;;;;;;;0.00;0.00;;;9.70;99.90;;;;;;5076584;28;20072;-88
2022/02/14 09:44:30;;;;;;;0.00;0.00;;;9.70;99.90;;;;;;5092119;28;20048;-88
2022/02/14 09:46:57;;;;;;;0.00;0.00;;;9.60;99.90;;;;;;5092271;28;20052;-87
2022/02/14 09:49:25;;;;;;;0.10;0.10;;;9.50;99.90;;;;;;5092141;28;20044;-87
2022/02/14 09:51:53;;;;;;;0.10;0.10;;;9.40;99.90;;;;;;5107346;28;20045;-86
2022/02/14 09:54:21;;;;;;;0.00;0.00;;;9.30;99.90;;;;;;5075197;28;20087;-86
2022/02/14 09:56:49;;;;;;;0.03;0.03;;;9.20;99.90;;;;;;5072449;28;20036;-86
2022/02/14 09:59:17;;;;;;;0.10;0.10;;;9.10;99.90;;;;;;5075330;28;20036;-86
2022/02/14 10:01:45;;;;;;;0.00;0.00;;;9.00;99.90;;;;;;5092915;28;20051;-87
2022/02/14 10:04:12;;;;;;;1.45;1.10;;;8.80;99.90;;;;;;5075267;28;20044;-87
2022/02/14 10:06:42;;;;;;;0.00;0.00;;;8.70;99.90;;;;;;5059154;28;20037;-86
2022/02/14 10:09:13;;;;;;;0.00;0.00;;;8.60;99.90;;;;;;5093104;28;20041;-88
2022/02/14 10:12:11;;;;;;;0.00;0.00;;;8.60;99.90;;;;;;5092620;28;20041;-89
2022/02/14 10:14:39;;;;;;;1.00;0.17;;;8.50;99.90;;;;;;5108878;28;20036;-88
2022/02/14 10:17:09;;;;;;;0.10;0.10;;;8.50;99.90;;;;;;5075879;28;20041;-87
2022/02/14 10:19:53;;;;;;;0.00;0.00;;;8.40;99.90;;;;;;5091494;28;20045;-86
2022/02/14 10:22:20;;;;;;;0.03;0.03;;;8.50;99.90;;;;;;5090825;28;20044;-88
2022/02/14 10:24:46;;;;;;;0.10;0.10;;;8.50;99.90;;;;;;5058995;28;20093;-87
2022/02/14 10:27:14;;;;;;;0.10;0.10;;;8.60;99.90;;;;;;5091589;28;20041;-88
2022/02/14 10:29:42;;;;;;;0.10;0.10;;;8.50;99.90;;;;;;5059060;28;20067;-89
2022/02/14 10:32:17;;;;;;;0.10;0.10;;;8.60;99.90;;;;;;5055174;28;20734;-89
2022/02/14 10:34:48;;;;;;;0.05;0.05;;;8.60;99.90;;;;;;5072373;28;20091;-89
2022/02/14 10:37:16;;;;;;;0.00;0.00;;;8.70;99.90;;;;;;5084704;28;20036;-88
2022/02/14 10:39:46;;;;;;;0.00;0.00;;;8.80;99.90;;;;;;5092136;28;20045;-87
2022/02/14 10:42:18;;;;;;;0.00;0.00;;;8.80;99.90;;;;;;5091880;28;20070;-87
2022/02/14 10:47:46;;;;;;;0.05;0.05;;;9.10;99.90;;;;;;5107401;28;20088;-87
2022/02/14 10:50:15;;;;;;;0.00;0.00;;;9.10;99.90;;;;;;5091508;28;20413;-87
2022/02/14 10:52:46;;;;;;;0.00;0.00;;;9.20;99.90;;;;;;5091949;28;20032;-87
2022/02/14 10:55:19;;;;;;;0.03;0.03;;;9.20;99.90;;;;;;5091350;28;20120;-88
2022/02/14 10:57:49;;;;;;;0.00;0.00;;;9.30;99.90;;;;;;5091162;28;20075;-87
2022/02/14 11:00:25;;;;;;;0.00;0.00;;;9.50;99.90;;;;;;5090197;28;20072;-87
2022/02/14 11:02:58;;;;;;;0.00;0.00;;;9.60;99.90;;;;;;5091234;28;20055;-89
2022/02/14 11:05:27;;;;;;;0.00;0.00;;;9.60;99.90;;;;;;5090835;28;20090;-87
2022/02/14 11:07:55;;;;;;;0.03;0.03;;;9.60;99.90;;;;;;5058019;28;20119;-87
2022/02/14 11:10:22;;;;;;;0.00;0.00;;;9.60;99.90;;;;;;5090669;28;20086;-87
2022/02/14 11:13:00;;;;;;;0.00;0.00;;;9.70;99.90;;;;;;5091030;28;20074;-87
2022/02/14 11:15:31;;;;;;;0.10;0.10;;;9.70;99.90;;;;;;5107156;28;20037;-87
2022/02/14 11:18:02;;;;;;;0.00;0.00;;;9.70;99.90;;;;;;5091112;28;20032;-87
2022/02/14 11:20:29;;;;;;;0.00;0.00;;;9.70;99.90;;;;;;5090344;28;20040;-87
2022/02/14 11:23:00;;;;;;;0.00;0.00;;;9.90;99.90;;;;;;5057751;28;20100;-87
2022/02/14 11:25:34;;;;;;;0.10;0.10;;;9.90;99.90;;;;;;5090808;28;20047;-88
2022/02/14 11:28:09;;;;;;;0.00;0.00;;;10.00;99.90;;;;;;5090144;28;20123;-88
2022/02/14 11:30:36;;;;;;;0.00;0.00;;;10.00;99.90;;;;;;5090611;28;20516;-88
2022/02/14 11:33:03;;;;;;;0.00;0.00;;;10.10;99.90;;;;;;5074010;28;20039;-88
2022/02/14 11:35:30;;;;;;;0.08;0.05;;;10.00;99.90;;;;;;5106323;28;20028;-88
2022/02/14 11:38:00;;;;;;;0.00;0.00;;;10.00;99.90;;;;;;5090555;28;20039;-87
2022/02/14 11:40:39;;;;;;;0.00;0.00;;;10.00;99.90;;;;;;5057926;28;20404;-87
2022/02/14 11:43:19;;;;;;;0.00;0.00;;;10.00;99.90;;;;;;5090332;28;20082;-88
2022/02/14 11:46:18;;;;;;;0.00;0.00;;;10.00;99.90;;;;;;5107590;28;20036;-88
2022/02/14 11:49:11;;;;;;;0.00;0.00;;;9.90;99.90;;;;;;5090137;28;20505;-87
2022/02/14 11:51:39;;;;;;;0.00;0.00;;;9.80;99.90;;;;;;5090229;28;20040;-88
2022/02/14 11:54:44;;;;;;;0.00;0.00;;;9.80;99.90;;;;;;5090840;28;20036;-89
2022/02/14 11:57:16;;;;;;;0.00;0.00;;;9.90;99.90;;;;;;5090331;28;20041;-89
2022/02/14 11:59:44;;;;;;;0.00;0.00;;;9.90;99.90;;;;;;5090833;28;20039;-89
2022/02/14 12:02:12;;;;;;;0.03;0.03;;;10.00;99.90;;;;;;5074266;28;20036;-88
2022/02/14 12:04:41;;;;;;;0.00;0.00;;;10.00;99.90;;;;;;5090210;28;20098;-88
2022/02/14 12:07:22;;;;;;;0.10;0.10;;;10.10;99.90;;;;;;5074551;28;20036;-87
2022/02/14 12:12:43;;;;;;;0.00;0.00;;;10.10;99.90;;;;;;5106208;28;20489;-88
2022/02/14 12:20:34;;;;;;;0.10;0.10;;;10.00;99.90;;;;;;5091020;28;20040;-87
2022/02/14 12:21:29;;;;;;;0.00;0.00;;;9.90;99.90;;;;;;5107145;28;20048;-88
2022/02/14 12:24:11;;;;;;;0.00;0.00;;;9.80;99.90;;;;;;5090497;28;20087;-88
2022/02/14 12:26:37;;;;;;;0.10;0.10;;;9.80;99.90;;;;;;5090312;28;20151;-88
2022/02/14 12:31:55;;;;;;;0.00;0.00;;;9.70;99.90;;;;;;5107309;28;20044;-87
2022/02/14 12:34:23;;;;;;;0.10;0.10;;;9.70;99.90;;;;;;5073130;28;20181;-87
2022/02/14 12:37:02;;;;;;;0.00;0.00;;;9.70;99.90;;;;;;5073332;28;20037;-88
2022/02/14 12:39:41;;;;;;;0.00;0.00;;;9.70;99.90;;;;;;5090586;28;20093;-87
2022/02/14 12:42:15;;;;;;;0.10;0.10;;;9.80;99.90;;;;;;5090733;28;20044;-88
2022/02/14 12:44:41;;;;;;;0.00;0.00;;;9.80;99.90;;;;;;5090605;28;20055;-88
2022/02/14 12:47:16;;;;;;;0.00;0.00;;;9.90;99.90;;;;;;5073047;28;20048;-89
2022/02/14 12:50:07;;;;;;;0.00;0.00;;;10.30;99.90;;;;;;5088939;28;20179;-88
2022/02/14 12:52:34;;;;;;;0.00;0.00;;;10.00;99.90;;;;;;5089271;28;20040;-87
2022/02/14 12:55:03;;;;;;;0.00;0.00;;;10.10;99.90;;;;;;5089832;28;20048;-88
2022/02/14 12:57:45;;;;;;;0.00;0.00;;;10.10;99.90;;;;;;5073049;28;20037;-89
2022/02/14 13:00:42;;;;;;;0.00;0.00;;;10.20;99.90;;;;;;5090017;28;20058;-87
2022/02/14 13:03:14;;;;;;;0.10;0.10;;;10.40;99.90;;;;;;5090479;28;20048;-87
2022/02/14 13:05:52;;;;;;;0.00;0.00;;;10.40;99.90;;;;;;5105980;28;20048;-88
2022/02/14 13:08:25;;;;;;;0.00;0.00;;;10.40;99.90;;;;;;5053692;28;20041;-88
2022/02/14 13:10:53;;;;;;;0.00;0.00;;;10.40;99.90;;;;;;5069743;28;20049;-87
2022/02/14 13:13:30;;;;;;;0.00;0.00;;;10.40;99.90;;;;;;5057801;28;20044;-88